sensor_id;sensor_type;location;lat;lon;timestamp;P1;durP1;ratioP1;P2;durP2;ratioP2
13374;SDS011;6756;51.354;15.754;2023-10-31T00:01:33;8.23;;;4.47;;
13374;SDS011;6756;51.354;15.754;2023-10-31T00:05:34;5.67;;;4.07;;
13374;SDS011;6756;51.354;15.754;2023-10-31T00:09:35;6.33;;;4.80;;
13374;SDS011;6756;51.354;15.754;2023-10-31T00:13:35;6.97;;;4.83;;
13374;SDS011;6756;51.354;15.754;2023-10-31T00:17:36;7.80;;;5.17;;
13374;SDS011;6756;51.354;15.754;2023-10-31T00:21:37;7.00;;;4.10;;
13374;SDS011;6756;51.354;15.754;2023-10-31T00:25:38;8.53;;;4.37;;
13374;SDS011;6756;51.354;15.754;2023-10-31T00:29:39;5.13;;;3.70;;
13374;SDS011;6756;51.354;15.754;2023-10-31T00:33:39;10.10;;;3.77;;
13374;SDS011;6756;51.354;15.754;2023-10-31T00:37:40;5.00;;;3.23;;
13374;SDS011;6756;51.354;15.754;2023-10-31T00:41:44;5.30;;;3.60;;
13374;SDS011;6756;51.354;15.754;2023-10-31T00:45:46;7.33;;;3.53;;
13374;SDS011;6756;51.354;15.754;2023-10-31T00:49:47;5.00;;;3.30;;
13374;SDS011;6756;51.354;15.754;2023-10-31T00:53:48;5.47;;;3.70;;
13374;SDS011;6756;51.354;15.754;2023-10-31T00:57:49;6.70;;;3.30;;
13374;SDS011;6756;51.354;15.754;2023-10-31T01:01:49;5.20;;;3.17;;
13374;SDS011;6756;51.354;15.754;2023-10-31T01:05:50;3.63;;;2.77;;
13374;SDS011;6756;51.354;15.754;2023-10-31T01:09:51;6.10;;;2.93;;
13374;SDS011;6756;51.354;15.754;2023-10-31T01:13:52;3.87;;;2.73;;
13374;SDS011;6756;51.354;15.754;2023-10-31T01:17:54;4.93;;;3.37;;
13374;SDS011;6756;51.354;15.754;2023-10-31T01:21:54;4.60;;;2.87;;
13374;SDS011;6756;51.354;15.754;2023-10-31T01:25:55;5.77;;;3.03;;
13374;SDS011;6756;51.354;15.754;2023-10-31T01:29:56;4.97;;;2.87;;
13374;SDS011;6756;51.354;15.754;2023-10-31T01:33:57;4.43;;;2.90;;
13374;SDS011;6756;51.354;15.754;2023-10-31T01:37:57;5.07;;;2.73;;
13374;SDS011;6756;51.354;15.754;2023-10-31T01:41:58;7.43;;;4.00;;
13374;SDS011;6756;51.354;15.754;2023-10-31T01:45:59;6.43;;;3.30;;
13374;SDS011;6756;51.354;15.754;2023-10-31T01:50:00;7.87;;;3.63;;
13374;SDS011;6756;51.354;15.754;2023-10-31T01:54:01;3.90;;;3.00;;
13374;SDS011;6756;51.354;15.754;2023-10-31T01:58:04;5.30;;;3.73;;
13374;SDS011;6756;51.354;15.754;2023-10-31T02:02:06;5.63;;;4.13;;
13374;SDS011;6756;51.354;15.754;2023-10-31T02:06:08;6.60;;;3.90;;
13374;SDS011;6756;51.354;15.754;2023-10-31T02:10:08;7.10;;;4.20;;
13374;SDS011;6756;51.354;15.754;2023-10-31T02:14:09;8.77;;;4.60;;
13374;SDS011;6756;51.354;15.754;2023-10-31T02:18:11;6.83;;;4.50;;
13374;SDS011;6756;51.354;15.754;2023-10-31T02:22:12;8.60;;;4.60;;
13374;SDS011;6756;51.354;15.754;2023-10-31T02:26:13;7.03;;;4.80;;
13374;SDS011;6756;51.354;15.754;2023-10-31T02:30:14;8.90;;;5.43;;
13374;SDS011;6756;51.354;15.754;2023-10-31T02:34:15;8.03;;;5.20;;
13374;SDS011;6756;51.354;15.754;2023-10-31T02:38:16;8.50;;;5.37;;
13374;SDS011;6756;51.354;15.754;2023-10-31T02:42:16;7.90;;;5.83;;
13374;SDS011;6756;51.354;15.754;2023-10-31T02:46:17;7.40;;;5.40;;
13374;SDS011;6756;51.354;15.754;2023-10-31T02:50:19;5.53;;;4.43;;
13374;SDS011;6756;51.354;15.754;2023-10-31T02:54:20;6.73;;;4.30;;
13374;SDS011;6756;51.354;15.754;2023-10-31T02:58:20;8.83;;;4.60;;
13374;SDS011;6756;51.354;15.754;2023-10-31T03:02:21;7.03;;;4.73;;
13374;SDS011;6756;51.354;15.754;2023-10-31T03:06:22;8.13;;;5.30;;
13374;SDS011;6756;51.354;15.754;2023-10-31T03:10:23;5.43;;;4.53;;
13374;SDS011;6756;51.354;15.754;2023-10-31T03:14:25;6.77;;;4.90;;
13374;SDS011;6756;51.354;15.754;2023-10-31T03:18:26;8.47;;;5.17;;
13374;SDS011;6756;51.354;15.754;2023-10-31T03:22:27;9.73;;;5.53;;
13374;SDS011;6756;51.354;15.754;2023-10-31T03:26:27;5.20;;;4.70;;
13374;SDS011;6756;51.354;15.754;2023-10-31T03:30:28;6.27;;;4.47;;
13374;SDS011;6756;51.354;15.754;2023-10-31T03:34:32;6.73;;;4.37;;
13374;SDS011;6756;51.354;15.754;2023-10-31T03:38:33;4.47;;;3.67;;
13374;SDS011;6756;51.354;15.754;2023-10-31T03:42:34;5.20;;;4.23;;
13374;SDS011;6756;51.354;15.754;2023-10-31T03:46:35;6.87;;;3.30;;
13374;SDS011;6756;51.354;15.754;2023-10-31T03:50:36;4.93;;;3.40;;
13374;SDS011;6756;51.354;15.754;2023-10-31T03:54:37;7.93;;;4.43;;
13374;SDS011;6756;51.354;15.754;2023-10-31T03:58:40;5.33;;;3.67;;
13374;SDS011;6756;51.354;15.754;2023-10-31T04:02:42;7.10;;;4.73;;
13374;SDS011;6756;51.354;15.754;2023-10-31T04:06:43;5.77;;;4.77;;
13374;SDS011;6756;51.354;15.754;2023-10-31T04:10:44;5.80;;;4.03;;
13374;SDS011;6756;51.354;15.754;2023-10-31T04:14:45;7.37;;;4.13;;
13374;SDS011;6756;51.354;15.754;2023-10-31T04:18:46;4.93;;;4.03;;
13374;SDS011;6756;51.354;15.754;2023-10-31T04:22:46;7.47;;;4.53;;
13374;SDS011;6756;51.354;15.754;2023-10-31T04:26:47;4.67;;;4.00;;
13374;SDS011;6756;51.354;15.754;2023-10-31T04:30:48;7.20;;;3.97;;
13374;SDS011;6756;51.354;15.754;2023-10-31T04:34:48;6.73;;;3.90;;
13374;SDS011;6756;51.354;15.754;2023-10-31T04:38:49;5.93;;;4.80;;
13374;SDS011;6756;51.354;15.754;2023-10-31T04:42:50;8.60;;;6.70;;
13374;SDS011;6756;51.354;15.754;2023-10-31T04:46:51;11.43;;;8.90;;
13374;SDS011;6756;51.354;15.754;2023-10-31T04:50:52;10.67;;;8.73;;
13374;SDS011;6756;51.354;15.754;2023-10-31T04:54:52;9.13;;;7.40;;
13374;SDS011;6756;51.354;15.754;2023-10-31T04:59:00;10.67;;;6.40;;
13374;SDS011;6756;51.354;15.754;2023-10-31T05:03:00;5.93;;;5.33;;
13374;SDS011;6756;51.354;15.754;2023-10-31T05:07:03;7.50;;;6.60;;
13374;SDS011;6756;51.354;15.754;2023-10-31T05:11:03;10.30;;;6.67;;
13374;SDS011;6756;51.354;15.754;2023-10-31T05:15:04;9.87;;;6.13;;
13374;SDS011;6756;51.354;15.754;2023-10-31T05:19:07;9.77;;;6.60;;
13374;SDS011;6756;51.354;15.754;2023-10-31T05:23:08;11.07;;;6.13;;
13374;SDS011;6756;51.354;15.754;2023-10-31T05:27:09;7.83;;;6.00;;
13374;SDS011;6756;51.354;15.754;2023-10-31T05:31:10;6.97;;;6.23;;
13374;SDS011;6756;51.354;15.754;2023-10-31T05:35:12;8.00;;;6.60;;
13374;SDS011;6756;51.354;15.754;2023-10-31T05:39:14;11.23;;;7.17;;
13374;SDS011;6756;51.354;15.754;2023-10-31T05:43:15;11.50;;;6.63;;
13374;SDS011;6756;51.354;15.754;2023-10-31T05:47:16;8.83;;;6.90;;
13374;SDS011;6756;51.354;15.754;2023-10-31T05:51:17;9.10;;;7.20;;
13374;SDS011;6756;51.354;15.754;2023-10-31T05:55:20;11.43;;;6.70;;
13374;SDS011;6756;51.354;15.754;2023-10-31T05:59:20;8.67;;;6.37;;
13374;SDS011;6756;51.354;15.754;2023-10-31T06:03:22;8.13;;;6.20;;
13374;SDS011;6756;51.354;15.754;2023-10-31T06:07:23;6.07;;;5.33;;
13374;SDS011;6756;51.354;15.754;2023-10-31T06:11:24;8.40;;;5.83;;
13374;SDS011;6756;51.354;15.754;2023-10-31T06:15:25;6.13;;;5.53;;
13374;SDS011;6756;51.354;15.754;2023-10-31T06:19:26;5.70;;;5.20;;
13374;SDS011;6756;51.354;15.754;2023-10-31T06:23:26;5.97;;;5.07;;
13374;SDS011;6756;51.354;15.754;2023-10-31T06:27:27;5.13;;;4.63;;
13374;SDS011;6756;51.354;15.754;2023-10-31T06:31:28;4.70;;;4.30;;
13374;SDS011;6756;51.354;15.754;2023-10-31T06:35:29;4.83;;;4.43;;
13374;SDS011;6756;51.354;15.754;2023-10-31T06:39:30;4.77;;;4.10;;
13374;SDS011;6756;51.354;15.754;2023-10-31T06:43:31;4.40;;;4.00;;
13374;SDS011;6756;51.354;15.754;2023-10-31T06:47:32;4.37;;;3.70;;
13374;SDS011;6756;51.354;15.754;2023-10-31T06:51:33;3.60;;;3.30;;
13374;SDS011;6756;51.354;15.754;2023-10-31T06:55:34;3.43;;;3.13;;
13374;SDS011;6756;51.354;15.754;2023-10-31T06:59:35;3.53;;;3.17;;
13374;SDS011;6756;51.354;15.754;2023-10-31T07:03:36;5.33;;;3.17;;
13374;SDS011;6756;51.354;15.754;2023-10-31T07:07:36;3.30;;;3.00;;
13374;SDS011;6756;51.354;15.754;2023-10-31T07:11:37;3.03;;;2.40;;
13374;SDS011;6756;51.354;15.754;2023-10-31T07:15:38;3.70;;;2.20;;
13374;SDS011;6756;51.354;15.754;2023-10-31T07:19:41;2.93;;;2.63;;
13374;SDS011;6756;51.354;15.754;2023-10-31T07:23:41;2.43;;;2.23;;
13374;SDS011;6756;51.354;15.754;2023-10-31T07:27:44;3.30;;;2.10;;
13374;SDS011;6756;51.354;15.754;2023-10-31T07:31:44;3.23;;;2.00;;
13374;SDS011;6756;51.354;15.754;2023-10-31T07:35:45;2.73;;;2.13;;
13374;SDS011;6756;51.354;15.754;2023-10-31T07:39:46;2.40;;;2.10;;
13374;SDS011;6756;51.354;15.754;2023-10-31T07:43:53;1.70;;;1.50;;
13374;SDS011;6756;51.354;15.754;2023-10-31T07:47:53;4.40;;;1.93;;
13374;SDS011;6756;51.354;15.754;2023-10-31T07:51:55;2.03;;;1.53;;
13374;SDS011;6756;51.354;15.754;2023-10-31T07:55:58;1.90;;;1.80;;
13374;SDS011;6756;51.354;15.754;2023-10-31T07:59:59;2.40;;;1.43;;
13374;SDS011;6756;51.354;15.754;2023-10-31T08:04:01;1.60;;;1.43;;
13374;SDS011;6756;51.354;15.754;2023-10-31T08:08:02;1.83;;;1.60;;
13374;SDS011;6756;51.354;15.754;2023-10-31T08:12:03;3.77;;;1.80;;
13374;SDS011;6756;51.354;15.754;2023-10-31T08:16:04;3.50;;;1.40;;
13374;SDS011;6756;51.354;15.754;2023-10-31T08:20:07;2.40;;;1.23;;
13374;SDS011;6756;51.354;15.754;2023-10-31T08:24:09;1.20;;;1.10;;
13374;SDS011;6756;51.354;15.754;2023-10-31T08:28:11;1.17;;;0.90;;
13374;SDS011;6756;51.354;15.754;2023-10-31T08:32:12;0.63;;;0.63;;
13374;SDS011;6756;51.354;15.754;2023-10-31T08:36:13;1.53;;;0.80;;
13374;SDS011;6756;51.354;15.754;2023-10-31T08:40:13;0.70;;;0.60;;
13374;SDS011;6756;51.354;15.754;2023-10-31T08:44:14;1.67;;;0.70;;
13374;SDS011;6756;51.354;15.754;2023-10-31T08:48:15;1.00;;;0.80;;
13374;SDS011;6756;51.354;15.754;2023-10-31T08:52:16;1.43;;;0.50;;
13374;SDS011;6756;51.354;15.754;2023-10-31T08:56:20;0.70;;;0.40;;
13374;SDS011;6756;51.354;15.754;2023-10-31T09:00:21;0.60;;;0.57;;
13374;SDS011;6756;51.354;15.754;2023-10-31T09:04:22;0.50;;;0.40;;
13374;SDS011;6756;51.354;15.754;2023-10-31T09:08:23;2.60;;;0.50;;
13374;SDS011;6756;51.354;15.754;2023-10-31T09:12:24;0.57;;;0.43;;
13374;SDS011;6756;51.354;15.754;2023-10-31T09:16:27;2.57;;;0.50;;
13374;SDS011;6756;51.354;15.754;2023-10-31T09:20:28;0.63;;;0.47;;
13374;SDS011;6756;51.354;15.754;2023-10-31T09:24:29;1.47;;;0.60;;
13374;SDS011;6756;51.354;15.754;2023-10-31T09:28:30;1.13;;;0.33;;
13374;SDS011;6756;51.354;15.754;2023-10-31T09:32:31;0.87;;;0.30;;
13374;SDS011;6756;51.354;15.754;2023-10-31T09:36:32;0.70;;;0.43;;
13374;SDS011;6756;51.354;15.754;2023-10-31T09:40:36;0.97;;;0.30;;
13374;SDS011;6756;51.354;15.754;2023-10-31T09:44:38;0.50;;;0.37;;
13374;SDS011;6756;51.354;15.754;2023-10-31T09:48:39;0.60;;;0.30;;
13374;SDS011;6756;51.354;15.754;2023-10-31T09:52:42;0.60;;;0.47;;
13374;SDS011;6756;51.354;15.754;2023-10-31T09:56:45;0.60;;;0.40;;
13374;SDS011;6756;51.354;15.754;2023-10-31T10:00:46;0.60;;;0.20;;
13374;SDS011;6756;51.354;15.754;2023-10-31T10:04:50;2.13;;;0.50;;
13374;SDS011;6756;51.354;15.754;2023-10-31T10:08:51;1.40;;;0.30;;
13374;SDS011;6756;51.354;15.754;2023-10-31T10:12:52;2.20;;;0.60;;
13374;SDS011;6756;51.354;15.754;2023-10-31T10:16:54;0.70;;;0.50;;
13374;SDS011;6756;51.354;15.754;2023-10-31T10:20:59;1.90;;;0.60;;
13374;SDS011;6756;51.354;15.754;2023-10-31T10:25:01;0.50;;;0.27;;
13374;SDS011;6756;51.354;15.754;2023-10-31T10:29:04;1.33;;;0.40;;
13374;SDS011;6756;51.354;15.754;2023-10-31T10:33:06;0.40;;;0.30;;
13374;SDS011;6756;51.354;15.754;2023-10-31T10:37:07;1.40;;;0.57;;
13374;SDS011;6756;51.354;15.754;2023-10-31T10:41:08;2.67;;;0.30;;
13374;SDS011;6756;51.354;15.754;2023-10-31T10:45:11;0.90;;;0.47;;
13374;SDS011;6756;51.354;15.754;2023-10-31T10:49:15;0.40;;;0.37;;
13374;SDS011;6756;51.354;15.754;2023-10-31T10:53:22;0.60;;;0.40;;
13374;SDS011;6756;51.354;15.754;2023-10-31T10:57:38;0.63;;;0.30;;
13374;SDS011;6756;51.354;15.754;2023-10-31T11:01:50;0.77;;;0.40;;
13374;SDS011;6756;51.354;15.754;2023-10-31T11:05:54;0.80;;;0.50;;
13374;SDS011;6756;51.354;15.754;2023-10-31T11:09:55;0.47;;;0.30;;
13374;SDS011;6756;51.354;15.754;2023-10-31T11:13:57;0.50;;;0.20;;
13374;SDS011;6756;51.354;15.754;2023-10-31T11:18:01;0.60;;;0.30;;
13374;SDS011;6756;51.354;15.754;2023-10-31T11:22:05;1.70;;;0.30;;
13374;SDS011;6756;51.354;15.754;2023-10-31T11:26:07;1.17;;;0.40;;
13374;SDS011;6756;51.354;15.754;2023-10-31T11:30:19;0.40;;;0.23;;
13374;SDS011;6756;51.354;15.754;2023-10-31T11:34:33;0.60;;;0.30;;
13374;SDS011;6756;51.354;15.754;2023-10-31T11:38:37;0.90;;;0.40;;
13374;SDS011;6756;51.354;15.754;2023-10-31T11:42:40;0.40;;;0.30;;
13374;SDS011;6756;51.354;15.754;2023-10-31T11:46:42;2.33;;;0.23;;
13374;SDS011;6756;51.354;15.754;2023-10-31T11:50:42;1.03;;;0.20;;
13374;SDS011;6756;51.354;15.754;2023-10-31T11:54:43;0.63;;;0.20;;
13374;SDS011;6756;51.354;15.754;2023-10-31T11:58:44;3.27;;;0.30;;
13374;SDS011;6756;51.354;15.754;2023-10-31T12:03:01;0.37;;;0.27;;
13374;SDS011;6756;51.354;15.754;2023-10-31T12:07:03;0.80;;;0.30;;
13374;SDS011;6756;51.354;15.754;2023-10-31T12:11:05;3.10;;;0.10;;
13374;SDS011;6756;51.354;15.754;2023-10-31T12:15:13;0.40;;;0.20;;
13374;SDS011;6756;51.354;15.754;2023-10-31T12:19:13;2.87;;;0.30;;
13374;SDS011;6756;51.354;15.754;2023-10-31T12:23:14;0.43;;;0.20;;
13374;SDS011;6756;51.354;15.754;2023-10-31T12:27:16;1.03;;;0.30;;
13374;SDS011;6756;51.354;15.754;2023-10-31T12:31:17;1.70;;;0.10;;
13374;SDS011;6756;51.354;15.754;2023-10-31T12:35:19;0.87;;;0.30;;
13374;SDS011;6756;51.354;15.754;2023-10-31T12:39:22;1.43;;;0.23;;
13374;SDS011;6756;51.354;15.754;2023-10-31T12:43:26;3.13;;;0.30;;
13374;SDS011;6756;51.354;15.754;2023-10-31T12:47:29;1.30;;;0.30;;
13374;SDS011;6756;51.354;15.754;2023-10-31T12:51:30;0.93;;;0.37;;
13374;SDS011;6756;51.354;15.754;2023-10-31T12:55:36;0.40;;;0.20;;
13374;SDS011;6756;51.354;15.754;2023-10-31T12:59:41;0.40;;;0.20;;
13374;SDS011;6756;51.354;15.754;2023-10-31T13:03:48;0.47;;;0.30;;
13374;SDS011;6756;51.354;15.754;2023-10-31T13:07:51;0.30;;;0.13;;
13374;SDS011;6756;51.354;15.754;2023-10-31T13:11:53;2.13;;;0.40;;
13374;SDS011;6756;51.354;15.754;2023-10-31T13:15:57;0.70;;;0.37;;
13374;SDS011;6756;51.354;15.754;2023-10-31T13:19:57;0.90;;;0.30;;
13374;SDS011;6756;51.354;15.754;2023-10-31T13:23:58;0.40;;;0.20;;
13374;SDS011;6756;51.354;15.754;2023-10-31T13:27:59;0.47;;;0.20;;
13374;SDS011;6756;51.354;15.754;2023-10-31T13:32:00;0.47;;;0.30;;
13374;SDS011;6756;51.354;15.754;2023-10-31T13:36:01;1.27;;;0.40;;
13374;SDS011;6756;51.354;15.754;2023-10-31T13:40:02;0.70;;;0.30;;
13374;SDS011;6756;51.354;15.754;2023-10-31T13:44:03;1.07;;;0.37;;
13374;SDS011;6756;51.354;15.754;2023-10-31T13:48:04;0.60;;;0.30;;
13374;SDS011;6756;51.354;15.754;2023-10-31T13:52:06;1.07;;;0.30;;
13374;SDS011;6756;51.354;15.754;2023-10-31T13:56:08;2.50;;;0.40;;
13374;SDS011;6756;51.354;15.754;2023-10-31T14:00:09;0.60;;;0.30;;
13374;SDS011;6756;51.354;15.754;2023-10-31T14:04:10;0.87;;;0.40;;
13374;SDS011;6756;51.354;15.754;2023-10-31T14:08:13;0.50;;;0.30;;
13374;SDS011;6756;51.354;15.754;2023-10-31T14:12:14;1.17;;;0.53;;
13374;SDS011;6756;51.354;15.754;2023-10-31T14:16:15;0.47;;;0.20;;
13374;SDS011;6756;51.354;15.754;2023-10-31T14:20:16;1.67;;;0.40;;
13374;SDS011;6756;51.354;15.754;2023-10-31T14:24:17;0.83;;;0.20;;
13374;SDS011;6756;51.354;15.754;2023-10-31T14:28:17;0.50;;;0.20;;
13374;SDS011;6756;51.354;15.754;2023-10-31T14:32:18;2.17;;;0.47;;
13374;SDS011;6756;51.354;15.754;2023-10-31T14:36:19;0.30;;;0.20;;
13374;SDS011;6756;51.354;15.754;2023-10-31T14:40:20;0.60;;;0.30;;
13374;SDS011;6756;51.354;15.754;2023-10-31T14:44:21;0.60;;;0.20;;
13374;SDS011;6756;51.354;15.754;2023-10-31T14:48:23;0.50;;;0.20;;
13374;SDS011;6756;51.354;15.754;2023-10-31T14:52:24;0.60;;;0.20;;
13374;SDS011;6756;51.354;15.754;2023-10-31T14:56:27;0.53;;;0.30;;
13374;SDS011;6756;51.354;15.754;2023-10-31T15:00:29;1.60;;;0.30;;
13374;SDS011;6756;51.354;15.754;2023-10-31T15:04:30;1.10;;;0.20;;
13374;SDS011;6756;51.354;15.754;2023-10-31T15:08:31;0.40;;;0.20;;
13374;SDS011;6756;51.354;15.754;2023-10-31T15:12:32;0.53;;;0.20;;
13374;SDS011;6756;51.354;15.754;2023-10-31T15:16:33;0.80;;;0.50;;
13374;SDS011;6756;51.354;15.754;2023-10-31T15:20:34;2.20;;;0.47;;
13374;SDS011;6756;51.354;15.754;2023-10-31T15:24:35;0.53;;;0.40;;
13374;SDS011;6756;51.354;15.754;2023-10-31T15:28:36;1.53;;;0.50;;
13374;SDS011;6756;51.354;15.754;2023-10-31T15:32:38;2.13;;;0.50;;
13374;SDS011;6756;51.354;15.754;2023-10-31T15:36:39;1.27;;;0.60;;
13374;SDS011;6756;51.354;15.754;2023-10-31T15:40:41;1.07;;;0.50;;
13374;SDS011;6756;51.354;15.754;2023-10-31T15:44:42;1.50;;;0.80;;
13374;SDS011;6756;51.354;15.754;2023-10-31T15:48:43;0.70;;;0.60;;
13374;SDS011;6756;51.354;15.754;2023-10-31T15:52:44;0.50;;;0.30;;
13374;SDS011;6756;51.354;15.754;2023-10-31T15:56:46;0.90;;;0.50;;
13374;SDS011;6756;51.354;15.754;2023-10-31T16:00:47;1.13;;;0.50;;
13374;SDS011;6756;51.354;15.754;2023-10-31T16:04:48;0.50;;;0.30;;
13374;SDS011;6756;51.354;15.754;2023-10-31T16:08:49;0.50;;;0.23;;
13374;SDS011;6756;51.354;15.754;2023-10-31T16:12:50;0.50;;;0.27;;
13374;SDS011;6756;51.354;15.754;2023-10-31T16:16:51;1.40;;;0.40;;
13374;SDS011;6756;51.354;15.754;2023-10-31T16:20:52;1.07;;;0.40;;
13374;SDS011;6756;51.354;15.754;2023-10-31T16:24:53;0.40;;;0.20;;
13374;SDS011;6756;51.354;15.754;2023-10-31T16:28:54;1.03;;;0.40;;
13374;SDS011;6756;51.354;15.754;2023-10-31T16:32:54;3.20;;;0.63;;
13374;SDS011;6756;51.354;15.754;2023-10-31T16:36:55;0.40;;;0.30;;
13374;SDS011;6756;51.354;15.754;2023-10-31T16:41:01;1.57;;;0.40;;
13374;SDS011;6756;51.354;15.754;2023-10-31T16:45:03;0.60;;;0.30;;
13374;SDS011;6756;51.354;15.754;2023-10-31T16:49:06;0.40;;;0.30;;
13374;SDS011;6756;51.354;15.754;2023-10-31T16:53:07;0.70;;;0.40;;
13374;SDS011;6756;51.354;15.754;2023-10-31T16:57:08;0.87;;;0.20;;
13374;SDS011;6756;51.354;15.754;2023-10-31T17:01:10;0.80;;;0.30;;
13374;SDS011;6756;51.354;15.754;2023-10-31T17:05:12;0.97;;;0.40;;
13374;SDS011;6756;51.354;15.754;2023-10-31T17:09:14;0.40;;;0.33;;
13374;SDS011;6756;51.354;15.754;2023-10-31T17:13:15;0.80;;;0.50;;
13374;SDS011;6756;51.354;15.754;2023-10-31T17:17:16;0.47;;;0.40;;
13374;SDS011;6756;51.354;15.754;2023-10-31T17:21:17;0.50;;;0.40;;
13374;SDS011;6756;51.354;15.754;2023-10-31T17:25:18;1.83;;;0.50;;
13374;SDS011;6756;51.354;15.754;2023-10-31T17:29:19;1.67;;;0.50;;
13374;SDS011;6756;51.354;15.754;2023-10-31T17:33:20;2.10;;;0.60;;
13374;SDS011;6756;51.354;15.754;2023-10-31T17:37:24;1.40;;;0.50;;
13374;SDS011;6756;51.354;15.754;2023-10-31T17:41:25;0.50;;;0.40;;
13374;SDS011;6756;51.354;15.754;2023-10-31T17:45:26;1.30;;;0.50;;
13374;SDS011;6756;51.354;15.754;2023-10-31T17:49:27;1.47;;;0.90;;
13374;SDS011;6756;51.354;15.754;2023-10-31T17:53:27;0.67;;;0.50;;
13374;SDS011;6756;51.354;15.754;2023-10-31T17:57:28;1.00;;;0.70;;
13374;SDS011;6756;51.354;15.754;2023-10-31T18:01:29;3.57;;;0.50;;
13374;SDS011;6756;51.354;15.754;2023-10-31T18:05:31;1.27;;;0.57;;
13374;SDS011;6756;51.354;15.754;2023-10-31T18:09:32;1.37;;;0.53;;
13374;SDS011;6756;51.354;15.754;2023-10-31T18:13:33;6.93;;;0.90;;
13374;SDS011;6756;51.354;15.754;2023-10-31T18:17:34;1.00;;;0.90;;
13374;SDS011;6756;51.354;15.754;2023-10-31T18:21:35;2.30;;;0.70;;
13374;SDS011;6756;51.354;15.754;2023-10-31T18:25:36;3.07;;;0.50;;
13374;SDS011;6756;51.354;15.754;2023-10-31T18:29:37;0.80;;;0.40;;
13374;SDS011;6756;51.354;15.754;2023-10-31T18:33:39;1.07;;;0.70;;
13374;SDS011;6756;51.354;15.754;2023-10-31T18:37:41;0.90;;;0.50;;
13374;SDS011;6756;51.354;15.754;2023-10-31T18:41:42;1.10;;;0.50;;
13374;SDS011;6756;51.354;15.754;2023-10-31T18:45:43;0.97;;;0.60;;
13374;SDS011;6756;51.354;15.754;2023-10-31T18:49:44;1.83;;;0.80;;
13374;SDS011;6756;51.354;15.754;2023-10-31T18:53:45;0.87;;;0.60;;
13374;SDS011;6756;51.354;15.754;2023-10-31T18:57:49;0.80;;;0.70;;
13374;SDS011;6756;51.354;15.754;2023-10-31T19:01:50;1.47;;;0.93;;
13374;SDS011;6756;51.354;15.754;2023-10-31T19:05:54;0.93;;;0.60;;
13374;SDS011;6756;51.354;15.754;2023-10-31T19:09:55;1.33;;;0.70;;
13374;SDS011;6756;51.354;15.754;2023-10-31T19:13:56;1.17;;;0.80;;
13374;SDS011;6756;51.354;15.754;2023-10-31T19:17:57;1.00;;;0.83;;
13374;SDS011;6756;51.354;15.754;2023-10-31T19:22:00;1.63;;;0.90;;
13374;SDS011;6756;51.354;15.754;2023-10-31T19:26:02;1.53;;;0.93;;
13374;SDS011;6756;51.354;15.754;2023-10-31T19:30:04;1.00;;;0.70;;
13374;SDS011;6756;51.354;15.754;2023-10-31T19:34:05;3.97;;;1.10;;
13374;SDS011;6756;51.354;15.754;2023-10-31T19:38:06;1.20;;;0.87;;
13374;SDS011;6756;51.354;15.754;2023-10-31T19:42:07;1.10;;;0.97;;
13374;SDS011;6756;51.354;15.754;2023-10-31T19:46:08;1.30;;;1.00;;
13374;SDS011;6756;51.354;15.754;2023-10-31T19:50:10;1.07;;;0.70;;
13374;SDS011;6756;51.354;15.754;2023-10-31T19:54:11;2.67;;;1.00;;
13374;SDS011;6756;51.354;15.754;2023-10-31T19:58:12;1.10;;;0.80;;
13374;SDS011;6756;51.354;15.754;2023-10-31T20:02:14;1.53;;;0.83;;
13374;SDS011;6756;51.354;15.754;2023-10-31T20:06:15;2.07;;;0.80;;
13374;SDS011;6756;51.354;15.754;2023-10-31T20:10:16;1.20;;;0.90;;
13374;SDS011;6756;51.354;15.754;2023-10-31T20:14:17;1.60;;;0.80;;
13374;SDS011;6756;51.354;15.754;2023-10-31T20:18:20;1.33;;;0.93;;
13374;SDS011;6756;51.354;15.754;2023-10-31T20:22:25;1.40;;;0.90;;
13374;SDS011;6756;51.354;15.754;2023-10-31T20:26:27;1.67;;;1.10;;
13374;SDS011;6756;51.354;15.754;2023-10-31T20:30:29;1.63;;;1.10;;
13374;SDS011;6756;51.354;15.754;2023-10-31T20:34:31;2.60;;;1.33;;
13374;SDS011;6756;51.354;15.754;2023-10-31T20:38:34;3.27;;;1.07;;
13374;SDS011;6756;51.354;15.754;2023-10-31T20:42:34;3.83;;;0.97;;
13374;SDS011;6756;51.354;15.754;2023-10-31T20:46:35;1.00;;;0.87;;
13374;SDS011;6756;51.354;15.754;2023-10-31T20:50:36;2.07;;;1.30;;
13374;SDS011;6756;51.354;15.754;2023-10-31T20:54:37;1.57;;;1.10;;
13374;SDS011;6756;51.354;15.754;2023-10-31T20:58:38;1.20;;;0.87;;
13374;SDS011;6756;51.354;15.754;2023-10-31T21:02:40;2.67;;;0.90;;
13374;SDS011;6756;51.354;15.754;2023-10-31T21:06:41;3.43;;;0.87;;
13374;SDS011;6756;51.354;15.754;2023-10-31T21:10:42;1.37;;;0.90;;
13374;SDS011;6756;51.354;15.754;2023-10-31T21:14:43;1.60;;;1.10;;
13374;SDS011;6756;51.354;15.754;2023-10-31T21:18:43;5.40;;;1.40;;
13374;SDS011;6756;51.354;15.754;2023-10-31T21:22:44;1.90;;;1.00;;
13374;SDS011;6756;51.354;15.754;2023-10-31T21:26:45;3.50;;;1.10;;
13374;SDS011;6756;51.354;15.754;2023-10-31T21:30:46;1.90;;;1.00;;
13374;SDS011;6756;51.354;15.754;2023-10-31T21:34:47;2.13;;;1.10;;
13374;SDS011;6756;51.354;15.754;2023-10-31T21:38:48;2.37;;;1.13;;
13374;SDS011;6756;51.354;15.754;2023-10-31T21:42:49;1.63;;;1.10;;
13374;SDS011;6756;51.354;15.754;2023-10-31T21:46:50;2.63;;;1.30;;
13374;SDS011;6756;51.354;15.754;2023-10-31T21:51:00;2.23;;;1.30;;
13374;SDS011;6756;51.354;15.754;2023-10-31T21:55:02;3.07;;;1.40;;
13374;SDS011;6756;51.354;15.754;2023-10-31T21:59:03;1.80;;;1.10;;
13374;SDS011;6756;51.354;15.754;2023-10-31T22:03:03;2.17;;;1.37;;
13374;SDS011;6756;51.354;15.754;2023-10-31T22:07:04;1.90;;;1.50;;
13374;SDS011;6756;51.354;15.754;2023-10-31T22:11:05;3.27;;;1.37;;
13374;SDS011;6756;51.354;15.754;2023-10-31T22:15:06;1.70;;;1.20;;
13374;SDS011;6756;51.354;15.754;2023-10-31T22:19:07;1.53;;;1.10;;
13374;SDS011;6756;51.354;15.754;2023-10-31T22:23:08;5.27;;;1.57;;
13374;SDS011;6756;51.354;15.754;2023-10-31T22:27:09;3.80;;;1.50;;
13374;SDS011;6756;51.354;15.754;2023-10-31T22:31:10;2.40;;;1.00;;
13374;SDS011;6756;51.354;15.754;2023-10-31T22:35:11;1.50;;;1.20;;
13374;SDS011;6756;51.354;15.754;2023-10-31T22:39:12;1.67;;;1.30;;
13374;SDS011;6756;51.354;15.754;2023-10-31T22:43:13;3.63;;;1.27;;
13374;SDS011;6756;51.354;15.754;2023-10-31T22:47:14;3.10;;;1.10;;
13374;SDS011;6756;51.354;15.754;2023-10-31T22:51:15;1.67;;;1.10;;
13374;SDS011;6756;51.354;15.754;2023-10-31T22:55:16;1.37;;;1.17;;
13374;SDS011;6756;51.354;15.754;2023-10-31T22:59:17;3.23;;;1.20;;
13374;SDS011;6756;51.354;15.754;2023-10-31T23:03:18;4.00;;;1.50;;
13374;SDS011;6756;51.354;15.754;2023-10-31T23:07:23;2.60;;;1.40;;
13374;SDS011;6756;51.354;15.754;2023-10-31T23:11:24;2.67;;;1.30;;
13374;SDS011;6756;51.354;15.754;2023-10-31T23:15:26;2.83;;;1.40;;
13374;SDS011;6756;51.354;15.754;2023-10-31T23:19:27;1.63;;;1.00;;
13374;SDS011;6756;51.354;15.754;2023-10-31T23:23:28;2.17;;;1.37;;
13374;SDS011;6756;51.354;15.754;2023-10-31T23:27:29;1.33;;;0.90;;
13374;SDS011;6756;51.354;15.754;2023-10-31T23:31:31;3.13;;;1.17;;
13374;SDS011;6756;51.354;15.754;2023-10-31T23:35:32;2.53;;;1.30;;
13374;SDS011;6756;51.354;15.754;2023-10-31T23:39:33;2.57;;;1.33;;
13374;SDS011;6756;51.354;15.754;2023-10-31T23:43:34;2.23;;;0.93;;
13374;SDS011;6756;51.354;15.754;2023-10-31T23:47:36;3.13;;;1.03;;
13374;SDS011;6756;51.354;15.754;2023-10-31T23:51:36;2.50;;;1.07;;
13374;SDS011;6756;51.354;15.754;2023-10-31T23:55:37;3.33;;;1.40;;
13374;SDS011;6756;51.354;15.754;2023-10-31T23:59:38;2.90;;;1.20;;
